createdAt,value
2024-02-02T00:00:26.679Z,3.83
2024-02-02T00:02:55.760Z,5.03
2024-02-02T00:05:23.498Z,3.70
2024-02-02T00:07:52.009Z,3.40
2024-02-02T00:10:19.846Z,3.93
2024-02-02T00:12:48.500Z,4.13
2024-02-02T00:15:16.300Z,3.83
2024-02-02T00:17:44.057Z,4.73
2024-02-02T00:20:15.281Z,4.00
2024-02-02T00:22:43.061Z,3.60
2024-02-02T00:25:10.831Z,3.90
2024-02-02T00:27:38.584Z,3.80
2024-02-02T00:30:07.355Z,4.47
2024-02-02T00:32:35.118Z,10.77
2024-02-02T00:35:02.962Z,3.77
2024-02-02T00:37:32.102Z,3.83
2024-02-02T00:40:00.290Z,3.27
2024-02-02T00:42:28.098Z,3.90
2024-02-02T00:44:55.986Z,4.70
2024-02-02T00:47:23.702Z,3.53
2024-02-02T00:49:51.408Z,3.77
2024-02-02T00:52:19.253Z,3.90
2024-02-02T00:54:48.295Z,4.40
2024-02-02T00:57:16.088Z,3.67
2024-02-02T00:59:43.843Z,3.80
2024-02-02T01:02:11.810Z,3.20
2024-02-02T01:04:39.847Z,3.70
2024-02-02T01:07:07.839Z,3.50
2024-02-02T01:09:35.698Z,3.33
2024-02-02T01:12:05.466Z,4.47
2024-02-02T01:14:33.408Z,3.47
2024-02-02T01:17:01.175Z,3.80
2024-02-02T01:19:29.041Z,3.87
2024-02-02T01:21:56.830Z,3.13
2024-02-02T01:24:24.697Z,3.47
2024-02-02T01:26:52.475Z,3.60
2024-02-02T01:29:21.577Z,3.73
2024-02-02T01:31:49.293Z,3.00
2024-02-02T01:34:17.260Z,3.23
2024-02-02T01:36:45.141Z,3.70
2024-02-02T01:39:14.330Z,3.40
2024-02-02T01:41:42.232Z,2.97
2024-02-02T01:44:10.659Z,2.80
2024-02-02T01:46:39.679Z,4.17
2024-02-02T01:49:07.610Z,3.60
2024-02-02T01:51:35.564Z,4.53
2024-02-02T01:54:03.657Z,3.40
2024-02-02T01:56:31.444Z,3.57
2024-02-02T01:58:59.205Z,3.30
2024-02-02T02:01:27.141Z,3.43
2024-02-02T02:03:56.423Z,3.23
2024-02-02T02:06:24.294Z,3.63
2024-02-02T02:08:52.109Z,3.70
2024-02-02T02:11:20.011Z,3.90
2024-02-02T02:13:47.875Z,3.93
2024-02-02T02:16:15.690Z,4.27
2024-02-02T02:18:52.463Z,3.20
2024-02-02T02:21:26.025Z,3.97
2024-02-02T02:23:53.864Z,3.43
2024-02-02T02:26:21.968Z,3.50
2024-02-02T02:28:50.568Z,3.33
2024-02-02T02:31:19.094Z,3.63
2024-02-02T02:33:47.421Z,2.97
2024-02-02T02:36:15.998Z,3.23
2024-02-02T02:38:46.183Z,2.90
2024-02-02T02:41:13.915Z,3.43
2024-02-02T02:43:41.877Z,2.60
2024-02-02T02:46:09.878Z,3.00
2024-02-02T02:48:38.706Z,3.33
2024-02-02T02:51:06.922Z,3.13
2024-02-02T02:53:34.723Z,3.80
2024-02-02T02:56:04.487Z,3.40
2024-02-02T02:58:32.323Z,3.00
2024-02-02T03:01:00.124Z,2.80
2024-02-02T03:03:28.033Z,3.63
2024-02-02T03:05:55.933Z,4.73
2024-02-02T03:08:23.713Z,3.13
2024-02-02T03:10:51.467Z,3.53
2024-02-02T03:13:20.794Z,3.53
2024-02-02T03:15:48.559Z,2.80
2024-02-02T03:18:16.605Z,3.07
2024-02-02T03:20:44.417Z,3.07
2024-02-02T03:23:12.073Z,3.43
2024-02-02T03:25:39.831Z,3.27
2024-02-02T03:28:07.682Z,2.80
2024-02-02T03:30:36.965Z,3.43
2024-02-02T03:33:05.185Z,3.13
2024-02-02T03:35:32.935Z,3.00
2024-02-02T03:38:00.719Z,3.17
2024-02-02T03:40:28.489Z,3.63
2024-02-02T03:42:56.359Z,2.83
2024-02-02T03:45:24.154Z,2.40
2024-02-02T03:47:53.299Z,3.27
2024-02-02T03:50:21.060Z,2.80
2024-02-02T03:52:51.507Z,2.53
2024-02-02T03:55:19.346Z,3.47
2024-02-02T03:57:47.077Z,2.60
2024-02-02T04:00:16.532Z,2.70
2024-02-02T04:02:44.803Z,2.83
2024-02-02T04:05:13.910Z,2.80
2024-02-02T04:07:41.942Z,2.90
2024-02-02T04:10:10.615Z,3.23
2024-02-02T04:12:39.053Z,2.87
2024-02-02T04:15:08.270Z,2.70
2024-02-02T04:17:36.095Z,2.70
2024-02-02T04:20:04.153Z,3.40
2024-02-02T04:22:33.507Z,3.80
2024-02-02T04:25:01.207Z,3.60
2024-02-02T04:27:29.064Z,3.70
2024-02-02T04:29:56.912Z,3.63
2024-02-02T04:32:24.650Z,3.70
2024-02-02T04:34:52.540Z,3.80
2024-02-02T04:37:20.331Z,3.83
2024-02-02T04:39:49.450Z,3.93
2024-02-02T04:42:17.176Z,4.40
2024-02-02T04:44:44.892Z,4.33
2024-02-02T04:47:12.698Z,4.23
2024-02-02T04:49:40.561Z,3.43
2024-02-02T04:52:08.390Z,3.67
2024-02-02T04:54:36.160Z,4.30
2024-02-02T04:57:05.801Z,3.80
2024-02-02T04:59:33.604Z,3.63
2024-02-02T05:02:04.882Z,3.87
2024-02-02T05:04:34.280Z,4.03
2024-02-02T05:07:02.100Z,3.93
2024-02-02T05:09:30.078Z,4.67
2024-02-02T05:11:57.922Z,3.80
2024-02-02T05:14:27.236Z,4.10
2024-02-02T05:16:54.910Z,4.77
2024-02-02T05:19:22.605Z,4.63
2024-02-02T05:21:50.326Z,3.60
2024-02-02T05:24:31.624Z,5.10
2024-02-02T05:27:06.162Z,4.73
2024-02-02T05:29:35.248Z,4.50
2024-02-02T05:32:03.005Z,3.70
2024-02-02T05:34:30.912Z,3.93
2024-02-02T05:36:58.665Z,4.13
2024-02-02T05:39:26.405Z,3.60
2024-02-02T05:41:56.359Z,4.03
2024-02-02T05:44:24.216Z,3.53
2024-02-02T05:46:53.342Z,3.43
2024-02-02T05:49:21.166Z,3.30
2024-02-02T05:51:49.877Z,3.00
2024-02-02T05:54:17.608Z,4.63
2024-02-02T05:56:45.301Z,3.63
2024-02-02T05:59:13.067Z,4.20
2024-02-02T06:01:40.131Z,3.60
2024-02-02T06:04:10.042Z,4.27
2024-02-02T06:06:37.869Z,3.57
2024-02-02T06:09:06.485Z,3.13
2024-02-02T06:11:34.621Z,3.80
2024-02-02T06:14:02.536Z,3.47
2024-02-02T06:16:30.370Z,3.40
2024-02-02T06:18:58.363Z,3.00
2024-02-02T06:21:27.619Z,3.80
2024-02-02T06:23:55.406Z,3.53
2024-02-02T06:26:24.379Z,3.30
2024-02-02T06:28:52.097Z,3.33
2024-02-02T06:31:22.636Z,4.10
2024-02-02T06:33:50.383Z,3.33
2024-02-02T06:36:18.223Z,3.57
2024-02-02T06:38:47.358Z,4.40
2024-02-02T06:41:15.032Z,3.23
2024-02-02T06:43:42.820Z,3.17
2024-02-02T06:46:10.527Z,3.57
2024-02-02T06:48:38.258Z,4.07
2024-02-02T06:51:06.654Z,3.73
2024-02-02T06:53:35.025Z,3.80
2024-02-02T06:56:05.761Z,3.20
2024-02-02T06:58:41.148Z,45.73
2024-02-02T07:01:09.755Z,26.07
2024-02-02T07:03:38.188Z,7.97
2024-02-02T07:06:07.120Z,6.33
2024-02-02T07:08:35.114Z,7.73
2024-02-02T07:11:47.230Z,7.57
2024-02-02T07:14:34.999Z,4.10
2024-02-02T07:17:02.864Z,4.17
2024-02-02T07:19:39.589Z,4.20
2024-02-02T07:22:21.885Z,3.23
2024-02-02T07:24:49.598Z,4.33
2024-02-02T07:27:49.994Z,4.20
2024-02-02T07:30:41.387Z,3.83
2024-02-02T07:33:20.650Z,7.40
2024-02-02T07:35:48.517Z,5.47
2024-02-02T07:38:41.063Z,3.67
2024-02-02T07:41:09.557Z,5.20
2024-02-02T07:43:38.606Z,3.97
2024-02-02T07:46:10.628Z,4.13
2024-02-02T07:48:41.247Z,3.27
2024-02-02T07:51:09.390Z,3.70
2024-02-02T07:53:37.500Z,4.17
2024-02-02T07:56:05.616Z,4.40
2024-02-02T07:58:33.411Z,3.87
2024-02-02T08:01:02.700Z,3.40
2024-02-02T08:03:30.788Z,3.60
2024-02-02T08:05:58.703Z,3.20
2024-02-02T08:08:26.536Z,3.60
2024-02-02T08:10:54.885Z,3.23
2024-02-02T08:13:23.519Z,3.57
2024-02-02T08:15:51.291Z,3.80
2024-02-02T08:18:20.474Z,3.80
2024-02-02T08:20:48.522Z,3.40
2024-02-02T08:23:16.274Z,5.77
2024-02-02T08:25:43.993Z,3.50
2024-02-02T08:28:11.699Z,4.37
2024-02-02T08:30:39.468Z,3.87
2024-02-02T08:33:07.650Z,3.70
2024-02-02T08:35:36.768Z,6.30
2024-02-02T08:38:05.372Z,3.80
2024-02-02T08:40:39.638Z,4.50
2024-02-02T08:43:11.066Z,4.20
2024-02-02T08:46:04.538Z,4.33
2024-02-02T08:48:37.228Z,3.73
2024-02-02T08:51:50.574Z,3.90
2024-02-02T08:54:46.932Z,4.20
2024-02-02T08:57:37.041Z,4.20
2024-02-02T09:00:19.324Z,4.33
2024-02-02T09:02:56.768Z,4.10
2024-02-02T09:05:26.866Z,4.60
2024-02-02T09:08:10.675Z,4.47
2024-02-02T09:11:22.715Z,3.90
2024-02-02T09:13:53.416Z,4.70
2024-02-02T09:16:21.151Z,3.70
2024-02-02T09:18:57.464Z,3.77
2024-02-02T09:21:29.041Z,3.97
2024-02-02T09:23:58.323Z,3.73
2024-02-02T09:26:33.060Z,4.17
2024-02-02T09:29:02.206Z,5.80
2024-02-02T09:31:33.460Z,4.13
2024-02-02T09:34:06.420Z,7.27
2024-02-02T09:36:35.056Z,4.93
2024-02-02T09:39:07.368Z,8.53
2024-02-02T09:42:02.353Z,3.93
2024-02-02T09:44:47.275Z,8.10
2024-02-02T09:47:32.679Z,7.50
2024-02-02T09:50:10.620Z,4.93
2024-02-02T09:52:51.708Z,4.70
2024-02-02T09:55:25.122Z,4.90
2024-02-02T09:57:57.332Z,5.93
2024-02-02T10:00:34.501Z,7.73
2024-02-02T10:03:10.527Z,7.77
2024-02-02T10:05:48.545Z,4.47
2024-02-02T10:08:26.399Z,5.87
2024-02-02T10:11:07.506Z,4.97
2024-02-02T10:13:44.450Z,4.53
2024-02-02T10:16:24.205Z,5.37
2024-02-02T10:19:04.770Z,5.37
2024-02-02T10:21:39.308Z,5.67
2024-02-02T10:24:34.403Z,5.17
2024-02-02T10:27:15.034Z,6.70
2024-02-02T10:29:50.089Z,7.00
2024-02-02T10:32:40.195Z,6.60
2024-02-02T10:35:17.857Z,5.93
2024-02-02T10:37:51.228Z,6.67
2024-02-02T10:40:34.692Z,7.97
2024-02-02T10:43:17.871Z,9.50
2024-02-02T10:45:54.826Z,5.87
2024-02-02T10:48:33.885Z,7.43
2024-02-02T10:51:08.243Z,9.47
2024-02-02T10:53:46.856Z,6.53
2024-02-02T10:56:24.222Z,7.30
2024-02-02T10:59:06.174Z,7.67
2024-02-02T11:01:42.949Z,6.53
2024-02-02T11:04:15.985Z,7.93
2024-02-02T11:06:48.419Z,6.13
2024-02-02T11:09:21.032Z,6.73
2024-02-02T11:11:55.212Z,6.37
2024-02-02T11:14:31.417Z,6.43
2024-02-02T11:17:02.655Z,7.47
2024-02-02T11:19:45.935Z,6.83
2024-02-02T11:22:21.085Z,7.30
2024-02-02T11:24:59.582Z,7.50
2024-02-02T11:27:34.440Z,6.87
2024-02-02T11:30:07.247Z,6.63
2024-02-02T11:32:47.943Z,7.47
2024-02-02T11:35:22.399Z,8.50
2024-02-02T11:37:58.728Z,6.13
2024-02-02T11:40:27.884Z,7.73
2024-02-02T11:42:57.387Z,6.60
2024-02-02T11:45:28.738Z,7.40
2024-02-02T11:48:01.755Z,6.70
2024-02-02T11:50:33.181Z,5.53
2024-02-02T11:53:09.750Z,6.73
2024-02-02T11:55:41.771Z,6.83
2024-02-02T11:58:10.721Z,6.00
2024-02-02T12:00:50.947Z,7.57
2024-02-02T12:03:28.911Z,6.60
2024-02-02T12:06:05.074Z,6.13
2024-02-02T12:08:34.063Z,6.13
2024-02-02T12:11:03.752Z,7.17
2024-02-02T12:13:32.622Z,7.57
2024-02-02T12:16:02.324Z,7.00
2024-02-02T12:18:30.169Z,5.00
2024-02-02T12:20:57.972Z,5.90
2024-02-02T12:23:25.724Z,6.33
2024-02-02T12:25:53.659Z,5.00
2024-02-02T12:28:21.364Z,5.63
2024-02-02T12:30:49.225Z,6.13
2024-02-02T12:33:22.380Z,5.40
2024-02-02T12:35:50.489Z,6.38
2024-02-02T12:38:22.785Z,5.00
2024-02-02T12:40:50.598Z,4.70
2024-02-02T12:43:24.783Z,4.70
2024-02-02T12:45:52.989Z,5.50
2024-02-02T12:48:22.404Z,5.20
2024-02-02T12:50:51.968Z,7.40
2024-02-02T12:53:21.109Z,6.60
2024-02-02T12:55:50.087Z,4.20
2024-02-02T12:58:18.067Z,6.33
2024-02-02T13:00:45.913Z,4.33
2024-02-02T13:03:14.203Z,3.93
2024-02-02T13:05:43.811Z,4.37
2024-02-02T13:08:12.017Z,4.50
2024-02-02T14:18:09.441Z,8.63
2024-02-02T14:20:37.852Z,6.40
2024-02-02T14:23:11.319Z,3.87
2024-02-02T14:25:39.124Z,3.07
2024-02-02T14:28:18.961Z,3.40
2024-02-02T14:30:47.112Z,5.10
2024-02-02T14:33:24.743Z,5.10
2024-02-02T14:35:54.044Z,3.60
2024-02-02T16:59:18.911Z,5.17
2024-02-02T17:01:48.012Z,4.23
2024-02-02T17:04:15.953Z,4.17
2024-02-02T17:06:44.203Z,4.00
2024-02-02T17:09:12.196Z,9.43
2024-02-02T17:11:39.979Z,25.50
2024-02-02T17:14:07.649Z,6.97
2024-02-02T17:16:35.399Z,13.93
2024-02-02T17:19:05.430Z,9.10
2024-02-02T17:21:33.511Z,5.50
2024-02-02T17:24:01.262Z,4.93
2024-02-02T17:26:29.337Z,4.80
2024-02-02T17:29:00.567Z,5.00
2024-02-02T17:31:35.142Z,9.17
2024-02-02T17:34:03.008Z,4.83
2024-02-02T17:36:32.124Z,5.53
2024-02-02T17:38:59.851Z,5.20
2024-02-02T17:41:27.516Z,7.67
2024-02-02T17:44:01.516Z,6.03
2024-02-02T17:46:29.162Z,9.63
2024-02-02T17:48:56.891Z,4.90
2024-02-02T17:51:25.135Z,6.50
2024-02-02T17:53:55.566Z,6.03
2024-02-02T17:56:23.307Z,4.50
2024-02-02T17:58:55.764Z,4.47
2024-02-02T18:01:23.968Z,5.23
2024-02-02T18:03:52.656Z,5.60
2024-02-02T18:06:21.005Z,6.60
2024-02-02T18:08:48.732Z,8.30
2024-02-02T18:11:17.768Z,7.70
2024-02-02T18:13:45.438Z,7.57
2024-02-02T18:16:14.269Z,9.60
2024-02-02T18:18:42.450Z,21.20
2024-02-02T18:21:10.473Z,5.03
2024-02-02T18:23:38.553Z,4.93
2024-02-02T18:26:06.792Z,16.93
2024-02-02T18:28:35.922Z,7.50
2024-02-02T18:31:04.297Z,5.00
2024-02-02T18:33:32.201Z,7.83
2024-02-02T18:36:00.028Z,8.13
2024-02-02T18:38:27.725Z,5.00
2024-02-02T18:40:55.461Z,5.63
2024-02-02T18:43:23.182Z,5.87
2024-02-02T18:45:52.260Z,11.73
2024-02-02T18:48:24.660Z,5.53
2024-02-02T18:50:52.520Z,7.53
2024-02-02T18:53:20.162Z,5.00
2024-02-02T18:55:50.245Z,5.80
2024-02-02T18:58:19.430Z,5.60
2024-02-02T19:00:48.242Z,8.30
2024-02-02T19:03:17.355Z,9.00
2024-02-02T19:05:47.984Z,5.80
2024-02-02T19:08:15.756Z,5.47
2024-02-02T19:10:45.615Z,11.30
2024-02-02T19:13:13.807Z,10.43
2024-02-02T19:15:41.538Z,7.20
2024-02-02T19:18:09.519Z,6.37
2024-02-02T19:20:41.054Z,6.20
2024-02-02T19:23:08.784Z,6.63
2024-02-02T19:25:36.477Z,5.80
2024-02-02T19:28:04.245Z,8.43
2024-02-02T19:30:31.956Z,7.60
2024-02-02T19:32:59.806Z,7.13
2024-02-02T19:35:28.910Z,7.17
2024-02-02T19:37:58.072Z,9.03
2024-02-02T19:40:25.774Z,7.80
2024-02-02T19:42:53.744Z,6.63
2024-02-02T19:45:21.448Z,7.13
2024-02-02T19:47:49.209Z,7.60
2024-02-02T19:50:16.956Z,8.00
2024-02-02T19:52:44.615Z,7.13
2024-02-02T19:55:14.455Z,6.13
2024-02-02T19:57:42.153Z,6.40
2024-02-02T20:00:14.742Z,6.60
2024-02-02T20:02:42.804Z,7.10
2024-02-02T20:05:10.919Z,7.30
2024-02-02T20:07:38.603Z,6.73
2024-02-02T20:10:07.924Z,7.93
2024-02-02T20:12:37.149Z,6.93
2024-02-02T20:15:05.393Z,7.37
2024-02-02T20:17:33.153Z,6.97
2024-02-02T20:20:00.970Z,6.90
2024-02-02T20:22:28.753Z,7.13
2024-02-02T20:24:56.505Z,8.53
2024-02-02T20:27:24.285Z,7.77
2024-02-02T20:29:53.619Z,7.53
2024-02-02T20:32:21.311Z,7.27
2024-02-02T20:34:49.156Z,7.13
2024-02-02T20:37:16.907Z,7.97
2024-02-02T20:39:44.660Z,9.47
2024-02-02T20:42:13.314Z,8.80
2024-02-02T20:44:42.798Z,10.47
2024-02-02T20:47:11.910Z,7.07
2024-02-02T20:49:40.800Z,8.70
2024-02-02T20:52:11.531Z,7.90
2024-02-02T20:54:39.254Z,7.50
2024-02-02T20:57:06.985Z,6.80
2024-02-02T20:59:34.710Z,7.77
2024-02-02T21:02:02.444Z,7.83
2024-02-02T21:04:31.701Z,11.73
2024-02-02T21:06:59.684Z,9.27
2024-02-02T21:09:28.306Z,9.40
2024-02-02T21:11:56.095Z,7.13
2024-02-02T21:14:24.049Z,7.47
2024-02-02T21:16:51.775Z,8.50
2024-02-02T21:19:19.626Z,8.70
2024-02-02T21:21:49.483Z,7.57
2024-02-02T21:24:17.277Z,7.77
2024-02-02T21:26:45.042Z,8.10
2024-02-02T21:29:13.242Z,7.37
2024-02-02T21:31:40.991Z,7.37
2024-02-02T21:34:09.082Z,8.73
2024-02-02T21:36:37.634Z,8.13
2024-02-02T21:39:07.762Z,7.80
2024-02-02T21:41:36.103Z,8.33
2024-02-02T21:44:04.628Z,7.83
2024-02-02T21:46:32.637Z,7.80
2024-02-02T21:49:00.555Z,0.70
2024-02-02T21:51:28.418Z,0.60
2024-02-02T21:53:56.164Z,0.70
2024-02-02T21:56:25.233Z,0.67
2024-02-02T21:58:52.929Z,0.70
2024-02-02T22:01:21.482Z,0.60
2024-02-02T22:03:49.361Z,0.70
2024-02-02T22:06:17.275Z,0.60
2024-02-02T22:08:45.059Z,0.60
2024-02-02T22:11:14.343Z,0.60
2024-02-02T22:13:43.669Z,0.60
2024-02-02T22:16:12.018Z,0.50
2024-02-02T22:18:39.828Z,0.60
2024-02-02T22:21:07.616Z,0.70
2024-02-02T22:23:36.118Z,0.70
2024-02-02T22:26:03.974Z,0.60
2024-02-02T22:28:31.770Z,0.60
2024-02-02T22:31:05.769Z,0.60
2024-02-02T22:33:34.148Z,0.60
2024-02-02T22:36:02.028Z,0.70
2024-02-02T22:38:29.688Z,0.43
2024-02-02T22:40:57.355Z,0.60
2024-02-02T22:43:25.017Z,0.50
2024-02-02T22:45:52.907Z,10.70
2024-02-02T22:48:22.012Z,10.40
2024-02-02T22:50:49.712Z,11.57
2024-02-02T22:53:17.406Z,10.17
2024-02-02T22:55:45.149Z,10.17
2024-02-02T22:58:12.914Z,10.30
2024-02-02T23:00:42.169Z,10.23
2024-02-02T23:03:11.499Z,11.00
2024-02-02T23:05:41.966Z,11.27
2024-02-02T23:08:09.649Z,11.30
2024-02-02T23:10:37.385Z,11.47
2024-02-02T23:13:06.549Z,10.40
2024-02-02T23:15:34.371Z,10.23
2024-02-02T23:18:02.170Z,10.53
2024-02-02T23:20:29.884Z,11.27
2024-02-02T23:22:58.947Z,10.87
2024-02-02T23:25:27.293Z,11.77
2024-02-02T23:27:55.074Z,12.90
2024-02-02T23:30:22.816Z,11.17
2024-02-02T23:32:50.505Z,11.30
2024-02-02T23:35:18.403Z,11.07
2024-02-02T23:37:46.134Z,11.67
2024-02-02T23:40:15.556Z,12.03
2024-02-02T23:42:43.260Z,11.83
2024-02-02T23:45:12.184Z,12.07
2024-02-02T23:47:39.979Z,11.33
2024-02-02T23:50:08.363Z,11.37
2024-02-02T23:52:36.071Z,12.20
2024-02-02T23:55:03.738Z,11.33
2024-02-02T23:57:32.930Z,10.93
